Time;durP1;ratioP1;P1;durP2;ratioP2;P2;SDS_P1;SDS_P2;PMS_P1;PMS_P2;Temp;Humidity;BMP_temperature;BMP_pressure;BME280_temperature;BME280_humidity;BME280_pressure;Samples;Min_cycle;Max_cycle;Signal;HPM_P1;HPM_P2
2020/12/22 00:00:41;;;;;;;87.47;37.10;;;;;;;3.67;100.00;95720.19;10445809;28;20116;-76
2020/12/22 00:05:42;;;;;;;97.50;37.07;;;;;;;3.51;100.00;95729.38;10451355;28;20040;-75
2020/12/22 00:10:42;;;;;;;87.60;36.17;;;;;;;3.42;100.00;95736.75;10453783;28;20037;-75
2020/12/22 00:15:42;;;;;;;88.37;34.43;;;;;;;3.49;100.00;95735.91;10453020;28;20879;-75
2020/12/22 00:20:44;;;;;;;89.27;35.17;;;;;;;3.65;100.00;95737.38;10453023;28;20064;-75
2020/12/22 00:25:47;;;;;;;84.88;33.65;;;;;;;3.78;100.00;95728.56;10453335;28;20284;-76
2020/12/22 00:30:50;;;;;;;95.53;33.58;;;;;;;3.74;100.00;95746.75;10453185;28;20040;-76
2020/12/22 00:35:51;;;;;;;89.88;33.75;;;;;;;3.84;100.00;95741.03;10452256;28;20025;-76
2020/12/22 00:40:51;;;;;;;87.07;33.08;;;;;;;3.75;100.00;95746.56;10452533;28;20029;-76
2020/12/22 00:45:52;;;;;;;74.45;30.17;;;;;;;3.76;100.00;95747.38;10451816;28;20870;-77
2020/12/22 00:50:52;;;;;;;75.07;29.95;;;;;;;3.74;100.00;95744.94;10452389;28;20037;-75
2020/12/22 00:55:53;;;;;;;72.90;29.73;;;;;;;3.79;100.00;95741.66;10452040;28;20033;-75
2020/12/22 01:00:53;;;;;;;84.10;30.87;;;;;;;3.84;100.00;95741.03;10451399;28;20051;-76
2020/12/22 01:05:53;;;;;;;94.37;29.60;;;;;;;3.86;100.00;95745.13;10450939;28;20370;-76
2020/12/22 01:10:54;;;;;;;78.60;31.07;;;;;;;3.71;100.00;95739.19;10451482;28;20060;-76
2020/12/22 01:15:54;;;;;;;80.03;30.58;;;;;;;3.72;100.00;95743.50;10450809;28;20784;-76
2020/12/22 01:20:55;;;;;;;86.07;33.47;;;;;;;3.80;100.00;95737.16;10450358;28;20033;-76
2020/12/22 01:25:55;;;;;;;82.32;30.90;;;;;;;3.64;100.00;95743.69;10450529;28;20168;-76
2020/12/22 01:30:56;;;;;;;74.88;29.23;;;;;;;3.50;100.00;95741.03;10450872;28;20102;-76
2020/12/22 01:35:56;;;;;;;69.90;31.58;;;;;;;3.25;100.00;95736.31;10450050;28;20036;-76
2020/12/22 01:40:57;;;;;;;87.72;33.63;;;;;;;3.25;100.00;95743.44;10450382;28;20056;-76
2020/12/22 01:45:57;;;;;;;72.10;29.47;;;;;;;3.29;100.00;95736.72;10450342;28;20055;-76
2020/12/22 01:50:58;;;;;;;78.57;30.02;;;;;;;3.37;100.00;95733.06;10449582;28;20283;-76
2020/12/22 01:55:58;;;;;;;69.10;29.38;;;;;;;3.48;100.00;95727.13;10449808;28;20083;-76
2020/12/22 02:00:59;;;;;;;72.55;30.92;;;;;;;3.47;100.00;95727.34;10449555;28;20036;-75
2020/12/22 02:06:00;;;;;;;72.55;29.13;;;;;;;3.64;100.00;95725.88;10449297;28;20413;-76
2020/12/22 02:11:00;;;;;;;84.28;31.83;;;;;;;3.69;100.00;95720.78;10447616;28;20120;-76
2020/12/22 02:16:01;;;;;;;72.30;29.73;;;;;;;3.71;100.00;95716.09;10448302;28;20048;-75
2020/12/22 02:21:02;;;;;;;69.03;28.60;;;;;;;3.77;100.00;95717.13;10480647;28;20045;-76
2020/12/22 02:26:02;;;;;;;82.47;34.65;;;;;;;3.55;100.00;95721.81;10447558;28;20063;-76
2020/12/22 02:31:03;;;;;;;91.47;34.47;;;;;;;3.45;100.00;95718.72;10448345;28;20102;-76
2020/12/22 02:36:11;;;;;;;95.28;34.17;;;;;;;3.64;100.00;95714.44;10448033;28;20040;-76
2020/12/22 02:41:12;;;;;;;94.95;35.72;;;;;;;3.61;100.00;95717.53;10448115;28;20040;-76
2020/12/22 02:46:12;;;;;;;79.28;33.05;;;;;;;3.71;100.00;95704.63;10448202;28;20036;-76
2020/12/22 02:51:13;;;;;;;95.88;35.28;;;;;;;3.77;100.00;95709.13;10447190;28;20036;-76
2020/12/22 02:56:13;;;;;;;82.15;35.55;;;;;;;3.74;100.00;95699.72;10447174;28;20069;-76
2020/12/22 03:01:13;;;;;;;92.77;37.30;;;;;;;3.36;100.00;95707.50;10475741;28;20040;-76
2020/12/22 03:06:14;;;;;;;95.93;36.43;;;;;;;3.27;100.00;95701.56;10488041;28;20036;-76
2020/12/22 03:11:14;;;;;;;90.07;38.70;;;;;;;3.44;100.00;95704.63;10488040;28;20460;-76
2020/12/22 03:16:17;;;;;;;97.53;37.60;;;;;;;3.59;100.00;95701.78;10488367;28;20302;-76
2020/12/22 03:21:18;;;;;;;91.43;37.38;;;;;;;3.59;100.00;95689.31;10488007;28;20290;-75
2020/12/22 03:26:18;;;;;;;86.80;34.22;;;;;;;3.67;100.00;95676.81;10488006;28;20032;-76
2020/12/22 03:31:18;;;;;;;82.90;31.50;;;;;;;3.68;100.00;95681.94;10488147;28;20525;-75
2020/12/22 03:36:19;;;;;;;89.43;31.57;;;;;;;3.65;100.00;95682.34;10487888;28;20865;-76
2020/12/22 03:41:20;;;;;;;80.23;32.40;;;;;;;3.66;100.00;95680.53;10494759;28;20669;-75
2020/12/22 03:46:21;;;;;;;77.20;33.70;;;;;;;3.46;100.00;95681.34;10495529;28;20314;-75
2020/12/22 03:51:21;;;;;;;86.23;32.17;;;;;;;3.62;100.00;95687.28;10495524;28;20175;-75
2020/12/22 03:56:22;;;;;;;88.88;34.05;;;;;;;3.63;100.00;95684.41;10493788;28;20283;-75
2020/12/22 04:01:22;;;;;;;76.93;33.35;;;;;;;3.66;100.00;95678.66;10495478;28;20492;-75
2020/12/22 04:06:23;;;;;;;75.10;31.42;;;;;;;3.65;100.00;95682.34;10495343;28;20036;-75
2020/12/22 04:11:23;;;;;;;68.07;28.65;;;;;;;3.68;100.00;95673.16;10495265;28;20380;-75
2020/12/22 04:16:24;;;;;;;65.53;26.88;;;;;;;3.75;100.00;95684.59;10494702;28;20048;-76
2020/12/22 04:21:24;;;;;;;59.95;25.35;;;;;;;3.70;100.00;95673.78;10494844;28;20040;-76
2020/12/22 04:26:25;;;;;;;65.43;25.67;;;;;;;3.72;100.00;95690.31;10493998;28;20090;-76
2020/12/22 04:31:26;;;;;;;71.60;28.50;;;;;;;3.67;100.00;95682.97;10494049;28;20097;-75
2020/12/22 04:36:26;;;;;;;78.07;31.90;;;;;;;3.81;100.00;95682.94;10494232;28;20037;-76
2020/12/22 04:41:28;;;;;;;78.72;34.53;;;;;;;3.56;100.00;95692.38;10492409;28;20111;-76
2020/12/22 04:46:31;;;;;;;77.93;33.42;;;;;;;3.33;100.00;95691.97;10494249;28;20574;-76
2020/12/22 04:51:32;;;;;;;85.93;33.30;;;;;;;3.29;100.00;95688.88;10492806;28;20041;-76
2020/12/22 04:56:35;;;;;;;90.30;33.75;;;;;;;3.35;100.00;95696.06;10491284;28;20028;-72
2020/12/22 05:01:37;;;;;;;78.80;30.55;;;;;;;3.47;100.00;95698.09;10492894;28;20035;-73
2020/12/22 05:06:38;;;;;;;89.55;36.88;;;;;;;3.33;100.00;95703.41;10454266;28;20732;-73
2020/12/22 05:11:38;;;;;;;92.85;32.58;;;;;;;3.42;100.00;95702.19;10464048;28;20039;-72
2020/12/22 05:16:39;;;;;;;81.07;31.57;;;;;;;3.25;100.00;95696.47;10491350;28;20048;-73
2020/12/22 05:21:40;;;;;;;83.80;32.28;;;;;;;3.04;100.00;95696.63;10491290;28;20290;-72
2020/12/22 05:26:43;;;;;;;92.10;35.08;;;;;;;3.08;100.00;95692.53;10474151;28;20021;-72
2020/12/22 05:31:46;;;;;;;87.18;33.20;;;;;;;3.17;100.00;95703.81;10450233;28;20041;-72
2020/12/22 05:36:47;;;;;;;81.38;34.28;;;;;;;3.24;100.00;95694.00;10449407;28;20496;-72
2020/12/22 05:41:48;;;;;;;75.85;32.80;;;;;;;3.33;100.00;95697.28;10449278;28;20037;-72
2020/12/22 05:46:49;;;;;;;79.25;32.63;;;;;;;3.46;100.00;95701.78;10449311;28;20033;-72
2020/12/22 05:51:52;;;;;;;93.47;33.33;;;;;;;3.55;100.00;95697.91;10449212;28;20498;-73
2020/12/22 05:57:05;;;;;;;94.70;36.03;;;;;;;3.68;100.00;95700.53;10490480;28;20434;-72
2020/12/22 06:02:06;;;;;;;78.93;31.23;;;;;;;3.39;100.00;95712.41;10449029;28;20499;-73
2020/12/22 06:07:06;;;;;;;74.95;30.67;;;;;;;3.58;100.00;95702.81;10452634;28;20032;-73
2020/12/22 06:12:07;;;;;;;86.22;33.55;;;;;;;3.61;100.00;95702.38;10489124;28;20028;-73
2020/12/22 06:17:10;;;;;;;85.60;31.65;;;;;;;3.80;100.00;95699.94;10489236;28;20051;-73
2020/12/22 06:22:16;;;;;;;87.95;32.92;;;;;;;3.77;100.00;95698.50;10488957;28;20499;-73
2020/12/22 06:27:16;;;;;;;80.60;32.33;;;;;;;3.85;100.00;95695.63;10489182;28;20048;-73
2020/12/22 06:32:16;;;;;;;87.50;30.70;;;;;;;3.92;100.00;95699.09;10488905;28;20085;-72
2020/12/22 06:37:21;;;;;;;80.87;32.30;;;;;;;3.99;100.00;95698.25;10488131;28;20037;-73
2020/12/22 06:42:30;;;;;;;80.95;31.92;;;;;;;4.11;100.00;95688.59;10488553;28;20804;-73
2020/12/22 06:47:34;;;;;;;81.93;28.33;;;;;;;3.89;100.00;95690.69;10488185;28;20094;-73
2020/12/22 06:52:43;;;;;;;87.68;30.20;;;;;;;3.66;100.00;95680.53;10478239;28;20064;-73
2020/12/22 06:57:47;;;;;;;;;;;;;;;3.69;100.00;95678.25;10447268;28;20053;-72
2020/12/22 07:02:49;;;;;;;80.30;29.17;;;;;;;3.92;100.00;95675.16;10447161;28;19920;-71
2020/12/22 07:07:59;;;;;;;68.60;28.08;;;;;;;3.98;100.00;95675.34;10461832;28;20484;-71
2020/12/22 07:12:59;;;;;;;71.57;25.92;;;;;;;4.16;100.00;95675.50;10475481;28;20115;-73
2020/12/22 07:18:05;;;;;;;64.22;26.58;;;;;;;4.29;100.00;95677.31;10445569;28;20128;-72
2020/12/22 07:23:06;;;;;;;71.78;28.40;;;;;;;4.34;100.00;95676.66;10458996;28;20559;-72
2020/12/22 07:28:09;;;;;;;67.13;27.00;;;;;;;4.56;100.00;95671.88;10445512;28;20033;-73
2020/12/22 07:33:10;;;;;;;71.68;25.75;;;;;;;4.53;100.00;95670.44;10445786;28;20044;-72
2020/12/22 07:38:10;;;;;;;71.55;27.25;;;;;;;4.80;100.00;95667.66;10445387;28;20036;-73
2020/12/22 07:43:13;;;;;;;67.10;25.50;;;;;;;4.92;100.00;95659.81;10445360;28;20036;-73
2020/12/22 07:48:13;;;;;;;52.33;21.55;;;;;;;5.08;100.00;95663.78;10479170;28;20032;-71
2020/12/22 07:53:16;;;;;;;63.28;24.27;;;;;;;5.21;100.00;95669.03;10484580;28;20037;-71
2020/12/22 07:58:17;;;;;;;54.78;23.90;;;;;;;5.43;100.00;95658.03;10461265;28;20043;-71
2020/12/22 08:03:18;;;;;;;58.47;26.30;;;;;;;5.61;100.00;95663.41;10486828;28;20850;-70
2020/12/22 08:08:18;;;;;;;55.03;20.58;;;;;;;5.68;100.00;95673.19;10480223;28;20114;-71
2020/12/22 08:13:25;;;;;;;56.63;25.13;;;;;;;5.63;100.00;95674.66;10475753;28;20028;-71
2020/12/22 08:18:30;;;;;;;47.85;20.75;;;;;;;5.60;100.00;95692.94;10483047;28;20049;-71
2020/12/22 08:23:31;;;;;;;59.20;22.15;;;;;;;5.44;100.00;95672.97;10480015;28;20112;-71
2020/12/22 08:28:34;;;;;;;55.05;22.45;;;;;;;5.56;100.00;95668.56;10484667;28;20111;-71
2020/12/22 08:33:36;;;;;;;57.67;22.98;;;;;;;5.77;100.00;95651.34;10472168;28;20367;-71
2020/12/22 08:38:37;;;;;;;67.60;26.85;;;;;;;5.85;100.00;95641.41;10490509;28;20025;-71
2020/12/22 08:43:46;;;;;;;62.53;26.42;;;;;;;5.78;100.00;95644.16;10491631;28;20040;-71
2020/12/22 08:48:47;;;;;;;73.47;25.27;;;;;;;6.05;100.00;95644.72;10492762;28;20478;-71
2020/12/22 08:53:50;;;;;;;68.18;25.60;;;;;;;6.31;100.00;95634.81;10492432;28;20036;-72
2020/12/22 08:58:57;;;;;;;56.25;24.83;;;;;;;6.58;100.00;95634.47;10485795;28;20021;-71
2020/12/22 09:03:59;;;;;;;63.00;25.05;;;;;;;6.52;100.00;95640.69;10483544;28;20040;-71
2020/12/22 09:09:01;;;;;;;65.40;28.55;;;;;;;6.65;100.00;95638.66;10489907;28;20028;-71
2020/12/22 09:14:05;;;;;;;61.08;28.15;;;;;;;6.28;100.00;95641.41;10450217;28;20043;-71
2020/12/22 09:19:05;;;;;;;61.08;25.30;;;;;;;6.11;100.00;95643.84;10449284;28;20138;-72
2020/12/22 09:24:06;;;;;;;80.18;26.42;;;;;;;6.10;100.00;95634.22;10450118;28;20298;-72
2020/12/22 09:29:07;;;;;;;61.85;25.30;;;;;;;6.16;100.00;95629.84;10449190;28;20043;-72
2020/12/22 09:34:07;;;;;;;64.17;27.47;;;;;;;6.09;100.00;95631.78;10448762;28;20028;-71
2020/12/22 09:39:08;;;;;;;70.13;27.45;;;;;;;6.04;100.00;95624.44;10447485;28;20039;-71
2020/12/22 09:44:08;;;;;;;79.50;28.02;;;;;;;6.15;100.00;95634.38;10448928;28;20063;-71
2020/12/22 09:49:09;;;;;;;72.90;29.30;;;;;;;6.27;100.00;95617.59;10448403;28;20075;-73
2020/12/22 09:54:10;;;;;;;67.53;26.97;;;;;;;6.38;100.00;95621.34;10448601;28;20059;-73
2020/12/22 09:59:11;;;;;;;74.32;29.60;;;;;;;6.10;100.00;95625.41;10446986;28;20307;-73
2020/12/22 10:04:12;;;;;;;63.83;29.15;;;;;;;6.11;100.00;95625.19;10447575;28;20039;-73
2020/12/22 10:09:13;;;;;;;74.97;31.02;;;;;;;6.21;100.00;95621.97;10476413;28;20040;-75
2020/12/22 10:14:13;;;;;;;81.20;31.58;;;;;;;6.19;100.00;95609.91;10487681;28;20059;-73
2020/12/22 10:19:14;;;;;;;77.93;30.95;;;;;;;6.20;100.00;95596.31;10487687;28;20041;-73
2020/12/22 10:24:14;;;;;;;79.07;31.40;;;;;;;6.36;100.00;95602.09;10488450;28;20028;-74
2020/12/22 10:29:15;;;;;;;72.05;29.92;;;;;;;6.40;100.00;95590.72;10481622;28;20062;-74
2020/12/22 10:34:15;;;;;;;74.07;30.48;;;;;;;6.35;100.00;95587.94;10475876;28;20134;-73
2020/12/22 10:39:16;;;;;;;74.82;29.48;;;;;;;6.49;100.00;95584.03;10464733;28;20519;-73
2020/12/22 10:44:16;;;;;;;73.07;27.43;;;;;;;6.41;100.00;95587.00;10461906;28;20040;-73
2020/12/22 10:49:17;;;;;;;68.82;26.83;;;;;;;6.04;100.00;95588.91;10487173;28;20121;-73
2020/12/22 10:54:17;;;;;;;71.47;27.73;;;;;;;6.18;100.00;95592.25;10475859;28;20045;-73
2020/12/22 10:59:17;;;;;;;69.88;28.23;;;;;;;6.08;100.00;95582.09;10445940;28;20045;-73
2020/12/22 11:04:18;;;;;;;70.03;29.50;;;;;;;6.03;100.00;95574.78;10480865;28;20032;-73
2020/12/22 11:09:20;;;;;;;82.47;30.33;;;;;;;6.04;100.00;95556.88;10477778;28;20029;-73
2020/12/22 11:14:20;;;;;;;73.53;29.75;;;;;;;6.21;100.00;95555.25;10446268;28;20041;-73
2020/12/22 11:19:21;;;;;;;71.90;29.13;;;;;;;6.29;100.00;95546.09;10445343;28;20067;-73
2020/12/22 11:24:21;;;;;;;72.97;29.00;;;;;;;6.32;100.00;95557.16;10445786;28;20344;-73
2020/12/22 11:29:22;;;;;;;67.18;28.33;;;;;;;6.36;100.00;95546.03;10445467;28;20071;-73
2020/12/22 11:34:22;;;;;;;78.38;31.27;;;;;;;7.58;100.00;95514.47;10445454;28;20044;-73
2020/12/22 11:39:23;;;;;;;63.53;26.77;;;;;;;9.85;100.00;95509.25;10444736;28;20497;-73
2020/12/22 11:44:23;;;;;;;63.40;25.00;;;;;;;9.16;100.00;95496.22;10477875;28;20029;-73
2020/12/22 11:49:25;;;;;;;64.53;26.65;;;;;;;9.52;100.00;95504.78;10464863;28;20055;-73
2020/12/22 11:54:26;;;;;;;64.57;28.23;;;;;;;8.78;100.00;95498.56;10471600;28;20036;-73
2020/12/22 11:59:26;;;;;;;63.50;28.13;;;;;;;8.55;100.00;95488.78;10450076;28;20041;-73
2020/12/22 12:04:27;;;;;;;89.10;33.15;;;;;;;8.53;100.00;95489.03;10451703;28;20029;-74
2020/12/22 12:09:27;;;;;;;80.70;32.80;;;;;;;8.17;100.00;95488.34;10452174;28;20049;-73
2020/12/22 12:14:29;;;;;;;79.63;35.35;;;;;;;7.76;100.00;95484.06;10452274;28;20050;-73
2020/12/22 12:19:32;;;;;;;78.47;32.03;;;;;;;7.92;100.00;95482.50;10451582;28;20063;-72
2020/12/22 12:24:32;;;;;;;77.18;31.98;;;;;;;8.05;100.00;95474.19;10451123;28;20542;-72
2020/12/22 12:29:33;;;;;;;71.60;30.27;;;;;;;7.65;100.00;95465.13;10452007;28;20032;-73
2020/12/22 12:34:33;;;;;;;80.67;29.70;;;;;;;7.80;100.00;95456.59;10450277;28;20037;-73
2020/12/22 12:39:34;;;;;;;76.85;30.98;;;;;;;7.72;100.00;95466.84;10450522;28;20790;-73
2020/12/22 12:44:34;;;;;;;80.53;31.77;;;;;;;7.67;100.00;95471.06;10451430;28;20028;-73
2020/12/22 12:49:35;;;;;;;81.78;32.28;;;;;;;7.60;100.00;95461.53;10450911;28;20086;-73
2020/12/22 12:54:35;;;;;;;82.07;32.83;;;;;;;7.48;100.00;95467.72;10450806;28;20044;-72
2020/12/22 12:59:36;;;;;;;80.13;31.92;;;;;;;7.20;100.00;95463.13;10450311;28;20515;-73
2020/12/22 13:04:36;;;;;;;82.15;32.92;;;;;;;7.33;100.00;95473.56;10449879;28;20165;-72
2020/12/22 13:09:37;;;;;;;80.65;33.53;;;;;;;7.18;100.00;95468.69;10449540;28;20033;-73
2020/12/22 13:14:37;;;;;;;75.45;33.75;;;;;;;7.06;100.00;95472.41;10449785;28;20037;-72
2020/12/22 13:19:38;;;;;;;92.55;35.80;;;;;;;6.92;100.00;95467.31;10449240;28;20056;-72
2020/12/22 13:24:38;;;;;;;89.40;36.75;;;;;;;6.76;100.00;95462.63;10449497;28;20033;-73
2020/12/22 13:29:38;;;;;;;86.93;36.00;;;;;;;6.71;100.00;95462.50;10449339;28;20086;-72
2020/12/22 13:34:39;;;;;;;78.47;37.17;;;;;;;6.62;100.00;95473.53;10449028;28;20044;-72
2020/12/22 13:39:39;;;;;;;93.97;36.20;;;;;;;6.49;100.00;95476.41;10481498;28;20132;-72
2020/12/22 13:44:40;;;;;;;91.68;38.42;;;;;;;6.44;100.00;95484.28;10448210;28;20037;-73
2020/12/22 13:49:40;;;;;;;93.28;39.47;;;;;;;6.43;100.00;95488.00;10448547;28;20024;-73
2020/12/22 13:54:41;;;;;;;89.63;35.85;;;;;;;6.56;100.00;95485.13;10448370;28;20488;-72
2020/12/22 13:59:41;;;;;;;90.77;35.03;;;;;;;6.40;100.00;95493.81;10448256;28;20093;-72
2020/12/22 14:04:42;;;;;;;105.13;39.55;;;;;;;6.29;100.00;95480.19;10447746;28;20811;-72
2020/12/22 14:09:42;;;;;;;110.82;40.78;;;;;;;6.22;100.00;95484.78;10448156;28;20033;-73
2020/12/22 14:14:43;;;;;;;114.15;43.17;;;;;;;6.15;100.00;95484.91;10447686;28;20033;-73
2020/12/22 14:19:43;;;;;;;110.18;42.28;;;;;;;6.09;100.00;95487.66;10446501;28;20049;-74
2020/12/22 14:24:44;;;;;;;114.10;46.75;;;;;;;5.98;100.00;95487.38;10446983;28;20381;-73
2020/12/22 14:29:44;;;;;;;99.30;41.72;;;;;;;5.89;100.00;95494.03;10447055;28;20040;-73
2020/12/22 14:34:45;;;;;;;95.38;39.42;;;;;;;5.87;100.00;95492.63;10446099;28;20037;-73
2020/12/22 14:39:45;;;;;;;108.50;38.65;;;;;;;5.84;100.00;95493.88;10446703;28;20041;-72
2020/12/22 14:44:46;;;;;;;92.50;38.67;;;;;;;5.79;100.00;95499.06;10504751;28;20037;-72
2020/12/22 14:49:46;;;;;;;96.43;38.75;;;;;;;5.69;100.00;95496.94;10485859;28;20089;-72
2020/12/22 14:54:49;;;;;;;89.72;36.53;;;;;;;5.57;100.00;95488.06;10462175;28;20492;-72
2020/12/22 14:59:49;;;;;;;96.55;39.05;;;;;;;5.46;100.00;95487.75;10470774;28;20102;-73
2020/12/22 15:04:50;;;;;;;98.75;39.55;;;;;;;5.38;100.00;95479.25;10486458;28;20119;-73
2020/12/22 15:09:50;;;;;;;101.13;36.83;;;;;;;5.31;100.00;95487.31;10482104;28;20033;-72
2020/12/22 15:14:51;;;;;;;105.57;36.05;;;;;;;5.34;100.00;95473.53;10445729;28;20291;-73
2020/12/22 15:19:51;;;;;;;94.35;37.95;;;;;;;5.10;100.00;95469.91;10473746;28;20139;-72
2020/12/22 15:24:51;;;;;;;94.47;38.42;;;;;;;5.11;100.00;95468.88;10485191;28;20115;-72
2020/12/22 15:29:52;;;;;;;96.97;35.93;;;;;;;5.12;100.00;95473.16;10486297;28;20062;-73
2020/12/22 15:34:52;;;;;;;86.10;36.03;;;;;;;4.96;100.00;95466.56;10475348;28;20037;-73
2020/12/22 15:39:53;;;;;;;89.97;35.97;;;;;;;5.00;100.00;95467.75;10479979;28;20028;-73
2020/12/22 15:44:57;;;;;;;96.82;38.13;;;;;;;4.88;100.00;95453.50;10490776;28;20040;-72
2020/12/22 15:49:57;;;;;;;101.97;38.53;;;;;;;4.86;100.00;95461.72;10487637;28;20040;-72
2020/12/22 15:54:58;;;;;;;96.53;38.57;;;;;;;4.88;100.00;95456.97;10466934;28;20028;-72
2020/12/22 15:59:58;;;;;;;96.97;39.10;;;;;;;4.87;100.00;95455.38;10466348;28;20297;-72
2020/12/22 16:04:59;;;;;;;92.27;37.40;;;;;;;4.84;100.00;95466.44;10444428;28;20415;-72
2020/12/22 16:09:59;;;;;;;93.78;35.22;;;;;;;4.90;100.00;95462.91;10469499;28;20396;-71
2020/12/22 16:14:59;;;;;;;91.97;34.72;;;;;;;4.96;100.00;95462.03;10467306;28;20090;-72
2020/12/22 16:20:00;;;;;;;87.13;34.88;;;;;;;4.96;100.00;95464.69;10489573;28;20040;-72
2020/12/22 16:25:02;;;;;;;80.43;33.05;;;;;;;4.88;100.00;95467.63;10454728;28;20064;-72
2020/12/22 16:30:04;;;;;;;91.00;34.13;;;;;;;5.01;100.00;95473.88;10478427;28;20043;-72
2020/12/22 16:35:04;;;;;;;86.75;32.47;;;;;;;5.06;100.00;95482.84;10487509;28;20028;-72
2020/12/22 16:40:05;;;;;;;76.32;30.52;;;;;;;5.11;100.00;95493.66;10483151;28;20037;-73
2020/12/22 16:45:05;;;;;;;86.20;35.72;;;;;;;5.07;100.00;95497.00;10483774;28;20119;-72
2020/12/22 16:50:06;;;;;;;91.13;34.25;;;;;;;5.01;100.00;95511.16;10487064;28;20020;-72
2020/12/22 16:55:06;;;;;;;85.67;31.37;;;;;;;5.01;100.00;95512.00;10487178;28;20059;-73
2020/12/22 17:00:07;;;;;;;93.63;32.85;;;;;;;4.88;100.00;95512.09;10484002;28;20310;-73
2020/12/22 17:05:07;;;;;;;82.85;35.08;;;;;;;4.70;100.00;95503.03;10486543;28;20048;-73
2020/12/22 17:10:08;;;;;;;101.35;37.50;;;;;;;4.61;100.00;95507.00;10484509;28;20021;-72
2020/12/22 17:15:08;;;;;;;111.15;39.17;;;;;;;4.66;100.00;95495.69;10484671;28;20046;-73
2020/12/22 17:20:09;;;;;;;106.80;40.15;;;;;;;4.71;100.00;95486.00;10481015;28;20774;-73
2020/12/22 17:25:09;;;;;;;102.75;40.03;;;;;;;4.84;100.00;95486.94;10477515;28;20407;-73
2020/12/22 17:30:10;;;;;;;100.97;36.88;;;;;;;4.70;100.00;95495.06;10484191;28;20200;-73
2020/12/22 17:35:10;;;;;;;93.07;33.35;;;;;;;4.78;100.00;95494.75;10483643;28;20063;-73
2020/12/22 17:40:11;;;;;;;89.50;35.57;;;;;;;4.82;100.00;95497.00;10484913;28;20028;-74
2020/12/22 17:45:11;;;;;;;86.63;36.22;;;;;;;4.82;100.00;95495.16;10483914;28;20370;-73
2020/12/22 17:50:12;;;;;;;96.10;37.97;;;;;;;4.77;100.00;95503.81;10478928;28;20535;-74
2020/12/22 17:55:13;;;;;;;94.72;36.10;;;;;;;4.79;100.00;95495.59;10484199;28;20039;-73
2020/12/22 18:00:14;;;;;;;93.18;34.97;;;;;;;4.90;100.00;95502.88;10473879;28;20562;-74
2020/12/22 18:05:14;;;;;;;78.80;32.67;;;;;;;4.94;100.00;95492.59;10482308;28;20033;-73
2020/12/22 18:10:16;;;;;;;91.70;36.37;;;;;;;4.71;100.00;95486.00;10484647;28;20419;-73
2020/12/22 18:15:16;;;;;;;93.10;35.42;;;;;;;4.64;100.00;95474.59;10486359;28;20298;-73
2020/12/22 18:20:17;;;;;;;81.47;33.70;;;;;;;4.70;100.00;95487.06;10486077;28;20295;-73
2020/12/22 18:25:17;;;;;;;98.85;34.35;;;;;;;4.57;100.00;95482.63;10470550;28;20037;-73
2020/12/22 18:30:20;;;;;;;89.97;33.38;;;;;;;4.71;100.00;95487.88;10479521;28;20027;-73
2020/12/22 18:35:20;;;;;;;88.97;33.25;;;;;;;4.78;100.00;95494.75;10466104;28;20396;-73
2020/12/22 18:40:21;;;;;;;86.32;35.20;;;;;;;4.88;100.00;95494.25;10469423;28;20040;-73
2020/12/22 18:45:22;;;;;;;85.80;31.60;;;;;;;4.95;100.00;95503.03;10476777;28;20036;-73
2020/12/22 18:50:22;;;;;;;83.57;33.25;;;;;;;4.96;100.00;95496.66;10453871;28;20436;-72
2020/12/22 18:55:23;;;;;;;83.05;32.08;;;;;;;4.83;100.00;95506.59;10481641;28;20036;-73
2020/12/22 19:00:24;;;;;;;86.45;33.53;;;;;;;4.54;100.00;95500.91;10478701;28;20043;-72
2020/12/22 19:05:24;;;;;;;76.90;31.67;;;;;;;4.52;100.00;95500.28;10478601;28;20048;-73
2020/12/22 19:10:25;;;;;;;90.22;32.72;;;;;;;4.51;100.00;95501.31;10473145;28;20032;-73
2020/12/22 19:15:26;;;;;;;77.28;31.02;;;;;;;4.52;100.00;95489.66;10482845;28;20495;-73
2020/12/22 19:20:27;;;;;;;78.28;30.98;;;;;;;4.60;100.00;95495.53;10476932;28;20041;-73
2020/12/22 19:25:27;;;;;;;69.77;27.53;;;;;;;4.50;100.00;95497.84;10484216;28;20038;-72
2020/12/22 19:30:28;;;;;;;75.65;30.50;;;;;;;4.54;100.00;95488.41;10483277;28;20285;-73
2020/12/22 19:35:28;;;;;;;74.28;27.90;;;;;;;4.50;100.00;95487.19;10473645;28;20439;-73
2020/12/22 19:40:29;;;;;;;76.68;30.17;;;;;;;4.55;100.00;95486.53;10444995;28;20108;-73
2020/12/22 19:45:29;;;;;;;85.88;32.78;;;;;;;4.63;100.00;95480.97;10462956;28;20546;-72
2020/12/22 19:50:31;;;;;;;68.18;30.20;;;;;;;4.72;100.00;95484.19;10478922;28;20544;-72
2020/12/22 19:55:31;;;;;;;82.13;34.30;;;;;;;4.68;100.00;95483.00;10481001;28;20070;-72
2020/12/22 20:00:32;;;;;;;79.18;31.15;;;;;;;4.66;100.00;95482.38;10476741;28;20564;-72
2020/12/22 20:05:32;;;;;;;84.25;31.65;;;;;;;4.84;100.00;95478.94;10457457;28;20051;-72
2020/12/22 20:10:36;;;;;;;84.55;31.75;;;;;;;4.78;100.00;95475.31;10443733;28;20051;-72
2020/12/22 20:15:37;;;;;;;81.55;32.92;;;;;;;4.81;100.00;95474.06;10441673;28;20508;-72
2020/12/22 20:20:37;;;;;;;85.57;34.13;;;;;;;4.84;100.00;95465.63;10443754;28;20053;-72
2020/12/22 20:25:37;;;;;;;98.95;39.90;;;;;;;4.56;100.00;95451.75;10448435;28;20051;-72
2020/12/22 20:30:42;;;;;;;97.68;40.75;;;;;;;4.53;100.00;95444.19;10487656;28;20097;-73
2020/12/22 20:35:42;;;;;;;104.13;43.15;;;;;;;4.54;100.00;95450.34;10492210;28;20032;-72
2020/12/22 20:40:42;;;;;;;100.40;42.23;;;;;;;4.49;100.00;95458.16;10492704;28;20036;-73
2020/12/22 20:45:43;;;;;;;100.57;43.83;;;;;;;4.42;100.00;95460.84;10491244;28;20793;-72
2020/12/22 20:50:49;;;;;;;97.35;40.05;;;;;;;4.34;100.00;95466.44;10482781;28;20506;-73
2020/12/22 20:55:51;;;;;;;92.88;38.08;;;;;;;4.20;100.00;95479.00;10450460;28;20139;-73
2020/12/22 21:00:51;;;;;;;111.53;44.03;;;;;;;4.23;100.00;95471.44;10470522;28;20482;-73
2020/12/22 21:05:52;;;;;;;96.22;38.13;;;;;;;4.42;100.00;95463.50;10460573;28;20029;-73
2020/12/22 21:10:54;;;;;;;92.22;38.00;;;;;;;4.47;100.00;95473.53;10472316;28;20040;-73
2020/12/22 21:15:55;;;;;;;90.70;37.20;;;;;;;4.57;100.00;95474.66;10458166;28;20053;-73
2020/12/22 21:20:55;;;;;;;93.65;37.20;;;;;;;4.62;100.00;95480.16;10489808;28;20045;-73
2020/12/22 21:25:55;;;;;;;137.45;58.22;;;;;;;4.68;100.00;95488.31;10495692;28;20032;-73
2020/12/22 21:30:56;;;;;;;165.45;74.60;;;;;;;4.65;100.00;95484.22;10529677;28;20043;-74
2020/12/22 21:35:57;;;;;;;166.55;72.28;;;;;;;4.65;100.00;95476.25;10513216;28;20495;-74
2020/12/22 21:40:57;;;;;;;158.00;71.70;;;;;;;4.65;100.00;95464.75;10511043;28;20047;-73
2020/12/22 21:45:58;;;;;;;140.68;60.67;;;;;;;4.65;100.00;95465.59;10485796;28;20036;-73
2020/12/22 21:50:59;;;;;;;138.60;61.63;;;;;;;4.54;100.00;95461.78;10490694;28;20028;-73
2020/12/22 21:56:00;;;;;;;137.23;60.97;;;;;;;4.53;100.00;95467.31;10520034;28;20560;-74
2020/12/22 22:01:00;;;;;;;127.97;55.22;;;;;;;4.55;100.00;95457.25;10530053;28;20174;-73
2020/12/22 22:06:01;;;;;;;146.00;59.35;;;;;;;4.46;100.00;95459.38;10530792;28;20027;-73
2020/12/22 22:11:01;;;;;;;132.23;57.60;;;;;;;4.48;100.00;95454.69;10509094;28;20040;-74
2020/12/22 22:16:02;;;;;;;146.63;57.47;;;;;;;4.46;100.00;95446.09;10501444;28;20143;-73
2020/12/22 22:21:02;;;;;;;135.63;58.95;;;;;;;4.53;100.00;95454.81;10487891;28;20036;-74
2020/12/22 22:26:03;;;;;;;122.85;51.95;;;;;;;4.50;100.00;95449.13;10487046;28;20791;-74
2020/12/22 22:31:04;;;;;;;129.77;52.80;;;;;;;4.56;100.00;95453.56;10471195;28;20497;-73
2020/12/22 22:36:05;;;;;;;135.57;53.83;;;;;;;4.32;100.00;95429.41;10468635;28;20567;-73
2020/12/22 22:41:06;;;;;;;134.82;49.05;;;;;;;4.25;100.00;95431.31;10469672;28;20037;-73
2020/12/22 22:46:10;;;;;;;116.00;48.40;;;;;;;4.19;100.00;95419.69;10485819;28;20036;-73